sensor_id;sensor_type;location;lat;lon;timestamp;P1;durP1;ratioP1;P2;durP2;ratioP2
9254;SDS011;4663;49.120;9.730;2023-05-21T00:02:03;31.42;;;29.30;;
9254;SDS011;4663;49.120;9.730;2023-05-21T00:04:28;31.27;;;29.13;;
9254;SDS011;4663;49.120;9.730;2023-05-21T00:06:56;33.15;;;30.38;;
9254;SDS011;4663;49.120;9.730;2023-05-21T00:09:22;34.47;;;32.28;;
9254;SDS011;4663;49.120;9.730;2023-05-21T00:11:48;33.05;;;30.75;;
9254;SDS011;4663;49.120;9.730;2023-05-21T00:14:13;33.55;;;31.40;;
9254;SDS011;4663;49.120;9.730;2023-05-21T00:16:39;34.72;;;32.55;;
9254;SDS011;4663;49.120;9.730;2023-05-21T00:19:04;35.00;;;32.70;;
9254;SDS011;4663;49.120;9.730;2023-05-21T00:21:30;39.33;;;36.78;;
9254;SDS011;4663;49.120;9.730;2023-05-21T00:23:55;41.75;;;39.08;;
9254;SDS011;4663;49.120;9.730;2023-05-21T00:26:21;44.95;;;42.15;;
9254;SDS011;4663;49.120;9.730;2023-05-21T00:28:48;44.03;;;41.17;;
9254;SDS011;4663;49.120;9.730;2023-05-21T00:31:13;39.63;;;37.17;;
9254;SDS011;4663;49.120;9.730;2023-05-21T00:33:39;43.63;;;40.25;;
9254;SDS011;4663;49.120;9.730;2023-05-21T00:36:05;39.92;;;37.45;;
9254;SDS011;4663;49.120;9.730;2023-05-21T00:38:31;41.45;;;38.80;;
9254;SDS011;4663;49.120;9.730;2023-05-21T00:40:59;38.28;;;35.88;;
9254;SDS011;4663;49.120;9.730;2023-05-21T00:43:26;37.75;;;35.45;;
9254;SDS011;4663;49.120;9.730;2023-05-21T00:45:51;40.50;;;37.83;;
9254;SDS011;4663;49.120;9.730;2023-05-21T00:48:17;40.22;;;37.10;;
9254;SDS011;4663;49.120;9.730;2023-05-21T00:50:44;35.75;;;33.42;;
9254;SDS011;4663;49.120;9.730;2023-05-21T00:53:10;39.15;;;36.60;;
9254;SDS011;4663;49.120;9.730;2023-05-21T00:55:39;43.90;;;41.10;;
9254;SDS011;4663;49.120;9.730;2023-05-21T00:58:05;44.28;;;41.47;;
9254;SDS011;4663;49.120;9.730;2023-05-21T01:00:32;45.60;;;42.88;;
9254;SDS011;4663;49.120;9.730;2023-05-21T01:02:58;43.40;;;40.63;;
9254;SDS011;4663;49.120;9.730;2023-05-21T01:05:24;46.95;;;43.85;;
9254;SDS011;4663;49.120;9.730;2023-05-21T01:07:52;46.58;;;43.85;;
9254;SDS011;4663;49.120;9.730;2023-05-21T01:10:17;44.83;;;41.90;;
9254;SDS011;4663;49.120;9.730;2023-05-21T01:12:43;46.25;;;43.17;;
9254;SDS011;4663;49.120;9.730;2023-05-21T01:15:11;44.53;;;41.72;;
9254;SDS011;4663;49.120;9.730;2023-05-21T01:17:36;46.90;;;44.08;;
9254;SDS011;4663;49.120;9.730;2023-05-21T01:20:03;47.47;;;44.40;;
9254;SDS011;4663;49.120;9.730;2023-05-21T01:22:34;52.15;;;49.08;;
9254;SDS011;4663;49.120;9.730;2023-05-21T01:25:00;48.55;;;45.58;;
9254;SDS011;4663;49.120;9.730;2023-05-21T01:27:27;47.97;;;44.97;;
9254;SDS011;4663;49.120;9.730;2023-05-21T01:29:52;47.05;;;44.28;;
9254;SDS011;4663;49.120;9.730;2023-05-21T01:35:10;47.25;;;44.25;;
9254;SDS011;4663;49.120;9.730;2023-05-21T01:37:58;45.88;;;43.13;;
9254;SDS011;4663;49.120;9.730;2023-05-21T01:40:40;45.05;;;42.30;;
9254;SDS011;4663;49.120;9.730;2023-05-21T01:43:13;43.70;;;41.10;;
9254;SDS011;4663;49.120;9.730;2023-05-21T01:45:39;46.33;;;43.50;;
9254;SDS011;4663;49.120;9.730;2023-05-21T01:48:07;41.83;;;39.33;;
9254;SDS011;4663;49.120;9.730;2023-05-21T01:50:34;44.22;;;41.45;;
9254;SDS011;4663;49.120;9.730;2023-05-21T01:53:01;47.25;;;44.08;;
9254;SDS011;4663;49.120;9.730;2023-05-21T01:55:27;44.42;;;41.75;;
9254;SDS011;4663;49.120;9.730;2023-05-21T01:57:54;44.72;;;42.03;;
9254;SDS011;4663;49.120;9.730;2023-05-21T02:00:20;45.50;;;42.72;;
9254;SDS011;4663;49.120;9.730;2023-05-21T02:02:47;43.53;;;40.92;;
9254;SDS011;4663;49.120;9.730;2023-05-21T02:05:13;45.03;;;42.22;;
9254;SDS011;4663;49.120;9.730;2023-05-21T02:07:38;42.63;;;40.10;;
9254;SDS011;4663;49.120;9.730;2023-05-21T02:10:05;42.53;;;39.83;;
9254;SDS011;4663;49.120;9.730;2023-05-21T02:12:31;43.78;;;41.05;;
9254;SDS011;4663;49.120;9.730;2023-05-21T02:14:57;44.78;;;41.70;;
9254;SDS011;4663;49.120;9.730;2023-05-21T02:17:22;43.95;;;41.17;;
9254;SDS011;4663;49.120;9.730;2023-05-21T02:19:54;44.85;;;42.08;;
9254;SDS011;4663;49.120;9.730;2023-05-21T02:22:19;42.88;;;40.03;;
9254;SDS011;4663;49.120;9.730;2023-05-21T02:24:45;44.47;;;41.78;;
9254;SDS011;4663;49.120;9.730;2023-05-21T02:27:11;44.67;;;41.97;;
9254;SDS011;4663;49.120;9.730;2023-05-21T02:29:37;44.45;;;41.45;;
9254;SDS011;4663;49.120;9.730;2023-05-21T02:32:03;44.83;;;42.00;;
9254;SDS011;4663;49.120;9.730;2023-05-21T02:34:29;42.53;;;39.85;;
9254;SDS011;4663;49.120;9.730;2023-05-21T02:36:58;44.65;;;41.78;;
9254;SDS011;4663;49.120;9.730;2023-05-21T02:39:24;43.30;;;40.65;;
9254;SDS011;4663;49.120;9.730;2023-05-21T02:41:50;40.97;;;38.42;;
9254;SDS011;4663;49.120;9.730;2023-05-21T02:44:16;40.03;;;37.40;;
9254;SDS011;4663;49.120;9.730;2023-05-21T02:46:43;41.30;;;38.65;;
9254;SDS011;4663;49.120;9.730;2023-05-21T02:49:08;41.95;;;39.30;;
9254;SDS011;4663;49.120;9.730;2023-05-21T02:51:34;39.42;;;36.70;;
9254;SDS011;4663;49.120;9.730;2023-05-21T02:53:59;38.60;;;36.08;;
9254;SDS011;4663;49.120;9.730;2023-05-21T02:56:25;39.67;;;37.13;;
9254;SDS011;4663;49.120;9.730;2023-05-21T02:58:50;40.28;;;37.78;;
9254;SDS011;4663;49.120;9.730;2023-05-21T03:01:16;39.53;;;36.85;;
9254;SDS011;4663;49.120;9.730;2023-05-21T03:03:41;38.97;;;36.47;;
9254;SDS011;4663;49.120;9.730;2023-05-21T03:06:06;41.67;;;39.08;;
9254;SDS011;4663;49.120;9.730;2023-05-21T03:08:33;40.60;;;37.90;;
9254;SDS011;4663;49.120;9.730;2023-05-21T03:10:59;40.60;;;37.67;;
9254;SDS011;4663;49.120;9.730;2023-05-21T03:13:25;39.53;;;36.83;;
9254;SDS011;4663;49.120;9.730;2023-05-21T03:15:50;38.15;;;35.60;;
9254;SDS011;4663;49.120;9.730;2023-05-21T03:18:20;37.40;;;34.88;;
9254;SDS011;4663;49.120;9.730;2023-05-21T03:20:45;39.25;;;36.40;;
9254;SDS011;4663;49.120;9.730;2023-05-21T03:23:10;37.50;;;35.10;;
9254;SDS011;4663;49.120;9.730;2023-05-21T03:25:37;39.47;;;36.85;;
9254;SDS011;4663;49.120;9.730;2023-05-21T03:28:03;40.38;;;37.78;;
9254;SDS011;4663;49.120;9.730;2023-05-21T03:30:28;39.33;;;36.80;;
9254;SDS011;4663;49.120;9.730;2023-05-21T03:32:53;40.20;;;37.40;;
9254;SDS011;4663;49.120;9.730;2023-05-21T03:35:20;38.40;;;35.95;;
9254;SDS011;4663;49.120;9.730;2023-05-21T03:37:45;38.25;;;35.92;;
9254;SDS011;4663;49.120;9.730;2023-05-21T03:40:11;39.28;;;36.78;;
9254;SDS011;4663;49.120;9.730;2023-05-21T03:42:37;39.22;;;36.72;;
9254;SDS011;4663;49.120;9.730;2023-05-21T03:45:02;34.17;;;31.92;;
9254;SDS011;4663;49.120;9.730;2023-05-21T03:47:28;36.72;;;34.42;;
9254;SDS011;4663;49.120;9.730;2023-05-21T03:49:53;34.97;;;32.58;;
9254;SDS011;4663;49.120;9.730;2023-05-21T03:52:18;37.88;;;35.47;;
9254;SDS011;4663;49.120;9.730;2023-05-21T03:54:44;38.60;;;36.03;;
9254;SDS011;4663;49.120;9.730;2023-05-21T03:57:09;36.72;;;34.38;;
9254;SDS011;4663;49.120;9.730;2023-05-21T03:59:35;35.17;;;32.80;;
9254;SDS011;4663;49.120;9.730;2023-05-21T04:02:00;35.40;;;33.05;;
9254;SDS011;4663;49.120;9.730;2023-05-21T04:04:25;34.03;;;31.48;;
9254;SDS011;4663;49.120;9.730;2023-05-21T04:06:53;34.97;;;32.75;;
9254;SDS011;4663;49.120;9.730;2023-05-21T04:09:19;32.70;;;30.55;;
9254;SDS011;4663;49.120;9.730;2023-05-21T04:11:45;32.67;;;30.65;;
9254;SDS011;4663;49.120;9.730;2023-05-21T04:14:10;32.53;;;30.40;;
9254;SDS011;4663;49.120;9.730;2023-05-21T04:16:36;32.47;;;30.40;;
9254;SDS011;4663;49.120;9.730;2023-05-21T04:19:02;32.55;;;30.55;;
9254;SDS011;4663;49.120;9.730;2023-05-21T04:21:28;36.78;;;34.50;;
9254;SDS011;4663;49.120;9.730;2023-05-21T04:23:53;36.90;;;34.30;;
9254;SDS011;4663;49.120;9.730;2023-05-21T04:26:21;39.25;;;36.65;;
9254;SDS011;4663;49.120;9.730;2023-05-21T04:28:47;40.75;;;38.05;;
9254;SDS011;4663;49.120;9.730;2023-05-21T04:31:13;38.08;;;35.50;;
9254;SDS011;4663;49.120;9.730;2023-05-21T04:33:39;38.70;;;36.20;;
9254;SDS011;4663;49.120;9.730;2023-05-21T04:36:06;38.17;;;35.85;;
9254;SDS011;4663;49.120;9.730;2023-05-21T04:38:34;41.50;;;38.78;;
9254;SDS011;4663;49.120;9.730;2023-05-21T04:41:01;39.33;;;36.83;;
9254;SDS011;4663;49.120;9.730;2023-05-21T04:43:27;39.55;;;37.25;;
9254;SDS011;4663;49.120;9.730;2023-05-21T04:45:53;39.13;;;36.83;;
9254;SDS011;4663;49.120;9.730;2023-05-21T04:48:19;39.33;;;36.90;;
9254;SDS011;4663;49.120;9.730;2023-05-21T04:50:45;37.55;;;35.05;;
9254;SDS011;4663;49.120;9.730;2023-05-21T04:53:10;35.97;;;33.83;;
9254;SDS011;4663;49.120;9.730;2023-05-21T04:55:36;38.25;;;35.95;;
9254;SDS011;4663;49.120;9.730;2023-05-21T04:58:04;38.95;;;36.45;;
9254;SDS011;4663;49.120;9.730;2023-05-21T05:00:31;41.53;;;39.10;;
9254;SDS011;4663;49.120;9.730;2023-05-21T05:02:57;47.80;;;45.10;;
9254;SDS011;4663;49.120;9.730;2023-05-21T05:05:22;50.00;;;47.10;;
9254;SDS011;4663;49.120;9.730;2023-05-21T05:07:48;54.28;;;51.20;;
9254;SDS011;4663;49.120;9.730;2023-05-21T05:10:13;49.75;;;46.67;;
9254;SDS011;4663;49.120;9.730;2023-05-21T05:12:39;46.70;;;43.78;;
9254;SDS011;4663;49.120;9.730;2023-05-21T05:15:04;45.08;;;42.35;;
9254;SDS011;4663;49.120;9.730;2023-05-21T05:17:30;49.90;;;46.92;;
9254;SDS011;4663;49.120;9.730;2023-05-21T05:19:55;47.10;;;44.13;;
9254;SDS011;4663;49.120;9.730;2023-05-21T05:22:21;47.80;;;44.90;;
9254;SDS011;4663;49.120;9.730;2023-05-21T05:24:46;49.83;;;46.92;;
9254;SDS011;4663;49.120;9.730;2023-05-21T05:27:11;49.83;;;46.90;;
9254;SDS011;4663;49.120;9.730;2023-05-21T05:29:37;52.50;;;49.50;;
9254;SDS011;4663;49.120;9.730;2023-05-21T05:32:02;50.00;;;46.83;;
9254;SDS011;4663;49.120;9.730;2023-05-21T05:34:28;46.17;;;43.33;;
9254;SDS011;4663;49.120;9.730;2023-05-21T05:36:53;42.38;;;39.63;;
9254;SDS011;4663;49.120;9.730;2023-05-21T05:39:18;42.50;;;39.28;;
9254;SDS011;4663;49.120;9.730;2023-05-21T05:41:44;39.83;;;37.35;;
9254;SDS011;4663;49.120;9.730;2023-05-21T05:44:09;37.05;;;34.70;;
9254;SDS011;4663;49.120;9.730;2023-05-21T05:46:35;34.78;;;32.55;;
9254;SDS011;4663;49.120;9.730;2023-05-21T05:49:00;31.80;;;29.70;;
9254;SDS011;4663;49.120;9.730;2023-05-21T05:51:25;31.02;;;28.95;;
9254;SDS011;4663;49.120;9.730;2023-05-21T05:53:51;30.35;;;28.35;;
9254;SDS011;4663;49.120;9.730;2023-05-21T05:56:16;30.80;;;28.75;;
9254;SDS011;4663;49.120;9.730;2023-05-21T05:58:41;50.30;;;47.20;;
9254;SDS011;4663;49.120;9.730;2023-05-21T06:01:07;28.88;;;26.88;;
9254;SDS011;4663;49.120;9.730;2023-05-21T06:03:32;32.17;;;29.98;;
9254;SDS011;4663;49.120;9.730;2023-05-21T06:05:58;32.63;;;30.58;;
9254;SDS011;4663;49.120;9.730;2023-05-21T06:08:23;35.45;;;33.00;;
9254;SDS011;4663;49.120;9.730;2023-05-21T06:10:48;37.80;;;35.30;;
9254;SDS011;4663;49.120;9.730;2023-05-21T06:13:14;44.58;;;42.03;;
9254;SDS011;4663;49.120;9.730;2023-05-21T06:15:39;57.47;;;54.25;;
9254;SDS011;4663;49.120;9.730;2023-05-21T06:18:07;60.90;;;57.58;;
9254;SDS011;4663;49.120;9.730;2023-05-21T06:20:32;67.53;;;63.80;;
9254;SDS011;4663;49.120;9.730;2023-05-21T06:22:58;70.85;;;67.05;;
9254;SDS011;4663;49.120;9.730;2023-05-21T06:25:23;61.92;;;58.70;;
9254;SDS011;4663;49.120;9.730;2023-05-21T06:27:49;59.65;;;56.30;;
9254;SDS011;4663;49.120;9.730;2023-05-21T06:30:15;56.40;;;53.30;;
9254;SDS011;4663;49.120;9.730;2023-05-21T06:32:41;57.20;;;53.85;;
9254;SDS011;4663;49.120;9.730;2023-05-21T06:35:07;49.70;;;46.85;;
9254;SDS011;4663;49.120;9.730;2023-05-21T06:37:33;44.53;;;42.00;;
9254;SDS011;4663;49.120;9.730;2023-05-21T06:39:58;37.47;;;35.17;;
9254;SDS011;4663;49.120;9.730;2023-05-21T06:42:23;32.80;;;30.42;;
9254;SDS011;4663;49.120;9.730;2023-05-21T06:44:49;32.63;;;30.52;;
9254;SDS011;4663;49.120;9.730;2023-05-21T06:47:14;34.15;;;32.13;;
9254;SDS011;4663;49.120;9.730;2023-05-21T06:49:40;36.83;;;34.72;;
9254;SDS011;4663;49.120;9.730;2023-05-21T06:52:05;36.60;;;34.40;;
9254;SDS011;4663;49.120;9.730;2023-05-21T06:54:31;37.70;;;35.67;;
9254;SDS011;4663;49.120;9.730;2023-05-21T06:56:56;32.78;;;30.77;;
9254;SDS011;4663;49.120;9.730;2023-05-21T06:59:22;30.65;;;28.92;;
9254;SDS011;4663;49.120;9.730;2023-05-21T07:01:47;27.27;;;25.70;;
9254;SDS011;4663;49.120;9.730;2023-05-21T07:04:13;25.55;;;23.95;;
9254;SDS011;4663;49.120;9.730;2023-05-21T07:06:38;22.98;;;21.40;;
9254;SDS011;4663;49.120;9.730;2023-05-21T07:09:03;22.63;;;21.10;;
9254;SDS011;4663;49.120;9.730;2023-05-21T07:11:30;21.77;;;20.45;;
9254;SDS011;4663;49.120;9.730;2023-05-21T07:13:57;22.90;;;21.48;;
9254;SDS011;4663;49.120;9.730;2023-05-21T07:16:27;22.70;;;21.27;;
9254;SDS011;4663;49.120;9.730;2023-05-21T07:18:53;23.10;;;21.70;;
9254;SDS011;4663;49.120;9.730;2023-05-21T07:21:18;21.40;;;20.17;;
9254;SDS011;4663;49.120;9.730;2023-05-21T07:23:44;23.02;;;21.75;;
9254;SDS011;4663;49.120;9.730;2023-05-21T07:26:09;25.35;;;23.85;;
9254;SDS011;4663;49.120;9.730;2023-05-21T07:28:35;23.95;;;22.48;;
9254;SDS011;4663;49.120;9.730;2023-05-21T07:31:00;24.00;;;22.60;;
9254;SDS011;4663;49.120;9.730;2023-05-21T07:33:26;21.20;;;19.90;;
9254;SDS011;4663;49.120;9.730;2023-05-21T07:35:52;20.15;;;18.67;;
9254;SDS011;4663;49.120;9.730;2023-05-21T07:38:17;20.63;;;19.42;;
9254;SDS011;4663;49.120;9.730;2023-05-21T07:40:43;24.20;;;22.80;;
9254;SDS011;4663;49.120;9.730;2023-05-21T07:43:08;19.75;;;18.42;;
9254;SDS011;4663;49.120;9.730;2023-05-21T07:45:33;21.17;;;19.98;;
9254;SDS011;4663;49.120;9.730;2023-05-21T07:47:59;20.25;;;19.10;;
9254;SDS011;4663;49.120;9.730;2023-05-21T07:50:24;23.25;;;21.95;;
9254;SDS011;4663;49.120;9.730;2023-05-21T07:52:50;23.33;;;21.92;;
9254;SDS011;4663;49.120;9.730;2023-05-21T07:55:15;21.65;;;20.35;;
9254;SDS011;4663;49.120;9.730;2023-05-21T07:57:41;20.13;;;18.92;;
9254;SDS011;4663;49.120;9.730;2023-05-21T08:00:06;21.27;;;19.98;;
9254;SDS011;4663;49.120;9.730;2023-05-21T08:02:38;20.35;;;19.00;;
9254;SDS011;4663;49.120;9.730;2023-05-21T08:05:03;19.95;;;18.80;;
9254;SDS011;4663;49.120;9.730;2023-05-21T08:07:29;19.80;;;18.55;;
9254;SDS011;4663;49.120;9.730;2023-05-21T08:09:55;21.02;;;19.73;;
9254;SDS011;4663;49.120;9.730;2023-05-21T08:12:21;22.98;;;21.67;;
9254;SDS011;4663;49.120;9.730;2023-05-21T08:14:46;20.08;;;18.92;;
9254;SDS011;4663;49.120;9.730;2023-05-21T08:17:12;18.27;;;17.23;;
9254;SDS011;4663;49.120;9.730;2023-05-21T08:19:37;20.73;;;19.52;;
9254;SDS011;4663;49.120;9.730;2023-05-21T08:22:03;21.05;;;19.75;;
9254;SDS011;4663;49.120;9.730;2023-05-21T08:24:30;20.30;;;19.08;;
9254;SDS011;4663;49.120;9.730;2023-05-21T08:26:56;20.63;;;19.45;;
9254;SDS011;4663;49.120;9.730;2023-05-21T08:29:21;23.45;;;22.13;;
9254;SDS011;4663;49.120;9.730;2023-05-21T08:31:46;24.90;;;23.40;;
9254;SDS011;4663;49.120;9.730;2023-05-21T08:34:12;27.65;;;26.15;;
9254;SDS011;4663;49.120;9.730;2023-05-21T08:36:37;27.67;;;26.15;;
9254;SDS011;4663;49.120;9.730;2023-05-21T08:39:03;26.55;;;25.05;;
9254;SDS011;4663;49.120;9.730;2023-05-21T08:41:29;25.10;;;23.73;;
9254;SDS011;4663;49.120;9.730;2023-05-21T08:43:56;23.25;;;21.88;;
9254;SDS011;4663;49.120;9.730;2023-05-21T08:46:25;22.73;;;21.45;;
9254;SDS011;4663;49.120;9.730;2023-05-21T08:48:56;22.00;;;20.70;;
9254;SDS011;4663;49.120;9.730;2023-05-21T08:51:23;22.92;;;21.63;;
9254;SDS011;4663;49.120;9.730;2023-05-21T08:53:49;24.27;;;22.95;;
9254;SDS011;4663;49.120;9.730;2023-05-21T08:56:18;25.75;;;24.25;;
9254;SDS011;4663;49.120;9.730;2023-05-21T08:58:45;24.70;;;23.30;;
9254;SDS011;4663;49.120;9.730;2023-05-21T09:01:11;24.40;;;23.10;;
9254;SDS011;4663;49.120;9.730;2023-05-21T09:03:38;27.20;;;25.50;;
9254;SDS011;4663;49.120;9.730;2023-05-21T09:06:11;26.52;;;25.02;;
9254;SDS011;4663;49.120;9.730;2023-05-21T09:08:42;25.17;;;23.85;;
9254;SDS011;4663;49.120;9.730;2023-05-21T09:11:09;26.48;;;24.73;;
9254;SDS011;4663;49.120;9.730;2023-05-21T09:13:36;25.95;;;24.45;;
9254;SDS011;4663;49.120;9.730;2023-05-21T09:16:02;25.73;;;24.23;;
9254;SDS011;4663;49.120;9.730;2023-05-21T09:18:29;25.38;;;23.88;;
9254;SDS011;4663;49.120;9.730;2023-05-21T09:20:55;26.75;;;25.25;;
9254;SDS011;4663;49.120;9.730;2023-05-21T09:23:20;25.85;;;24.23;;
9254;SDS011;4663;49.120;9.730;2023-05-21T09:25:46;25.60;;;24.20;;
9254;SDS011;4663;49.120;9.730;2023-05-21T09:28:13;25.02;;;23.63;;
9254;SDS011;4663;49.120;9.730;2023-05-21T09:30:46;26.77;;;25.33;;
9254;SDS011;4663;49.120;9.730;2023-05-21T09:33:12;23.17;;;21.77;;
9254;SDS011;4663;49.120;9.730;2023-05-21T09:35:53;22.38;;;21.08;;
9254;SDS011;4663;49.120;9.730;2023-05-21T09:38:20;20.92;;;19.73;;
9254;SDS011;4663;49.120;9.730;2023-05-21T09:40:47;19.10;;;18.02;;
9254;SDS011;4663;49.120;9.730;2023-05-21T09:43:13;21.50;;;20.17;;
9254;SDS011;4663;49.120;9.730;2023-05-21T09:45:49;22.13;;;20.92;;
9254;SDS011;4663;49.120;9.730;2023-05-21T09:51:25;20.77;;;19.58;;
9254;SDS011;4663;49.120;9.730;2023-05-21T09:53:52;22.50;;;21.17;;
9254;SDS011;4663;49.120;9.730;2023-05-21T09:56:19;22.88;;;21.65;;
9254;SDS011;4663;49.120;9.730;2023-05-21T09:58:46;23.85;;;22.35;;
9254;SDS011;4663;49.120;9.730;2023-05-21T10:01:12;25.58;;;24.17;;
9254;SDS011;4663;49.120;9.730;2023-05-21T10:03:38;23.02;;;21.80;;
9254;SDS011;4663;49.120;9.730;2023-05-21T10:06:07;24.88;;;23.23;;
9254;SDS011;4663;49.120;9.730;2023-05-21T10:08:34;24.52;;;23.08;;
9254;SDS011;4663;49.120;9.730;2023-05-21T10:11:04;24.92;;;23.42;;
9254;SDS011;4663;49.120;9.730;2023-05-21T10:13:29;26.23;;;24.60;;
9254;SDS011;4663;49.120;9.730;2023-05-21T10:16:00;29.48;;;27.80;;
9254;SDS011;4663;49.120;9.730;2023-05-21T10:18:29;26.10;;;24.63;;
9254;SDS011;4663;49.120;9.730;2023-05-21T10:20:56;26.25;;;24.85;;
9254;SDS011;4663;49.120;9.730;2023-05-21T10:23:23;24.00;;;22.63;;
9254;SDS011;4663;49.120;9.730;2023-05-21T10:25:49;27.63;;;25.98;;
9254;SDS011;4663;49.120;9.730;2023-05-21T10:28:16;27.23;;;25.73;;
9254;SDS011;4663;49.120;9.730;2023-05-21T10:30:42;27.20;;;25.60;;
9254;SDS011;4663;49.120;9.730;2023-05-21T10:33:08;29.15;;;27.60;;
9254;SDS011;4663;49.120;9.730;2023-05-21T10:35:36;26.75;;;25.25;;
9254;SDS011;4663;49.120;9.730;2023-05-21T10:38:02;24.73;;;23.23;;
9254;SDS011;4663;49.120;9.730;2023-05-21T10:40:29;26.67;;;25.17;;
9254;SDS011;4663;49.120;9.730;2023-05-21T10:46:18;23.67;;;22.35;;
9254;SDS011;4663;49.120;9.730;2023-05-21T10:49:14;24.45;;;23.15;;
9254;SDS011;4663;49.120;9.730;2023-05-21T10:52:03;23.35;;;21.95;;
9254;SDS011;4663;49.120;9.730;2023-05-21T10:59:48;24.42;;;23.13;;
9254;SDS011;4663;49.120;9.730;2023-05-21T11:02:15;26.15;;;24.80;;
9254;SDS011;4663;49.120;9.730;2023-05-21T11:04:43;29.65;;;27.98;;
9254;SDS011;4663;49.120;9.730;2023-05-21T11:07:12;28.13;;;26.50;;
9254;SDS011;4663;49.120;9.730;2023-05-21T11:09:38;25.27;;;23.90;;
9254;SDS011;4663;49.120;9.730;2023-05-21T11:12:03;22.92;;;21.67;;
9254;SDS011;4663;49.120;9.730;2023-05-21T11:19:34;24.50;;;23.25;;
9254;SDS011;4663;49.120;9.730;2023-05-21T11:22:01;23.10;;;21.88;;
9254;SDS011;4663;49.120;9.730;2023-05-21T11:24:30;25.23;;;23.85;;
9254;SDS011;4663;49.120;9.730;2023-05-21T11:29:39;26.30;;;24.90;;
9254;SDS011;4663;49.120;9.730;2023-05-21T11:32:08;25.42;;;24.02;;
9254;SDS011;4663;49.120;9.730;2023-05-21T11:34:45;25.60;;;24.20;;
9254;SDS011;4663;49.120;9.730;2023-05-21T11:39:41;26.20;;;24.80;;
9254;SDS011;4663;49.120;9.730;2023-05-21T11:42:06;25.65;;;24.23;;
9254;SDS011;4663;49.120;9.730;2023-05-21T11:47:14;27.25;;;25.85;;
9254;SDS011;4663;49.120;9.730;2023-05-21T11:49:41;24.58;;;23.27;;
9254;SDS011;4663;49.120;9.730;2023-05-21T11:52:08;23.30;;;21.98;;
9254;SDS011;4663;49.120;9.730;2023-05-21T11:54:44;24.98;;;23.50;;
9254;SDS011;4663;49.120;9.730;2023-05-21T11:57:16;22.42;;;21.13;;
9254;SDS011;4663;49.120;9.730;2023-05-21T11:59:45;23.63;;;22.23;;
9254;SDS011;4663;49.120;9.730;2023-05-21T12:02:14;24.05;;;22.85;;
9254;SDS011;4663;49.120;9.730;2023-05-21T12:04:41;26.05;;;24.73;;
9254;SDS011;4663;49.120;9.730;2023-05-21T12:07:09;30.67;;;29.00;;
9254;SDS011;4663;49.120;9.730;2023-05-21T12:12:19;35.15;;;32.85;;
9254;SDS011;4663;49.120;9.730;2023-05-21T12:14:47;38.88;;;36.83;;
9254;SDS011;4663;49.120;9.730;2023-05-21T12:17:17;37.33;;;35.42;;
9254;SDS011;4663;49.120;9.730;2023-05-21T12:19:44;36.05;;;34.20;;
9254;SDS011;4663;49.120;9.730;2023-05-21T12:22:10;35.15;;;33.25;;
9254;SDS011;4663;49.120;9.730;2023-05-21T12:24:35;34.72;;;32.72;;
9254;SDS011;4663;49.120;9.730;2023-05-21T12:27:03;27.10;;;25.50;;
9254;SDS011;4663;49.120;9.730;2023-05-21T12:29:33;23.63;;;22.33;;
9254;SDS011;4663;49.120;9.730;2023-05-21T12:32:01;25.50;;;23.85;;
9254;SDS011;4663;49.120;9.730;2023-05-21T12:34:40;27.23;;;25.65;;
9254;SDS011;4663;49.120;9.730;2023-05-21T12:37:07;28.08;;;26.55;;
9254;SDS011;4663;49.120;9.730;2023-05-21T12:39:36;25.88;;;24.50;;
9254;SDS011;4663;49.120;9.730;2023-05-21T12:42:03;29.10;;;27.55;;
9254;SDS011;4663;49.120;9.730;2023-05-21T12:44:29;25.10;;;23.77;;
9254;SDS011;4663;49.120;9.730;2023-05-21T12:46:55;22.75;;;21.45;;
9254;SDS011;4663;49.120;9.730;2023-05-21T12:49:41;23.67;;;22.38;;
9254;SDS011;4663;49.120;9.730;2023-05-21T12:52:11;27.23;;;25.50;;
9254;SDS011;4663;49.120;9.730;2023-05-21T12:54:38;27.30;;;25.67;;
9254;SDS011;4663;49.120;9.730;2023-05-21T12:57:06;25.88;;;24.48;;
9254;SDS011;4663;49.120;9.730;2023-05-21T12:59:47;24.80;;;23.40;;
9254;SDS011;4663;49.120;9.730;2023-05-21T13:02:27;23.48;;;22.10;;
9254;SDS011;4663;49.120;9.730;2023-05-21T13:04:59;24.30;;;22.90;;
9254;SDS011;4663;49.120;9.730;2023-05-21T13:07:32;22.10;;;20.90;;
9254;SDS011;4663;49.120;9.730;2023-05-21T13:09:59;22.65;;;21.35;;
9254;SDS011;4663;49.120;9.730;2023-05-21T13:12:27;22.58;;;21.25;;
9254;SDS011;4663;49.120;9.730;2023-05-21T13:14:54;26.30;;;24.60;;
9254;SDS011;4663;49.120;9.730;2023-05-21T13:17:21;24.15;;;22.80;;
9254;SDS011;4663;49.120;9.730;2023-05-21T13:22:36;25.98;;;24.33;;
9254;SDS011;4663;49.120;9.730;2023-05-21T13:25:06;21.67;;;20.48;;
9254;SDS011;4663;49.120;9.730;2023-05-21T13:27:35;22.48;;;21.27;;
9254;SDS011;4663;49.120;9.730;2023-05-21T13:30:01;24.60;;;23.23;;
9254;SDS011;4663;49.120;9.730;2023-05-21T13:32:27;25.98;;;24.55;;
9254;SDS011;4663;49.120;9.730;2023-05-21T13:34:52;25.52;;;24.02;;
9254;SDS011;4663;49.120;9.730;2023-05-21T13:37:17;25.27;;;23.67;;
9254;SDS011;4663;49.120;9.730;2023-05-21T13:39:44;25.88;;;24.38;;
9254;SDS011;4663;49.120;9.730;2023-05-21T13:42:10;27.08;;;25.50;;
9254;SDS011;4663;49.120;9.730;2023-05-21T13:44:36;29.52;;;27.83;;
9254;SDS011;4663;49.120;9.730;2023-05-21T13:47:02;28.77;;;27.17;;
9254;SDS011;4663;49.120;9.730;2023-05-21T13:49:28;28.38;;;26.85;;
9254;SDS011;4663;49.120;9.730;2023-05-21T13:51:53;28.52;;;26.63;;
9254;SDS011;4663;49.120;9.730;2023-05-21T13:54:19;28.40;;;26.88;;
9254;SDS011;4663;49.120;9.730;2023-05-21T13:56:45;28.45;;;26.48;;
9254;SDS011;4663;49.120;9.730;2023-05-21T13:59:10;29.08;;;27.48;;
9254;SDS011;4663;49.120;9.730;2023-05-21T14:01:35;30.05;;;28.45;;
9254;SDS011;4663;49.120;9.730;2023-05-21T14:04:01;28.67;;;26.77;;
9254;SDS011;4663;49.120;9.730;2023-05-21T14:06:30;30.13;;;28.42;;
9254;SDS011;4663;49.120;9.730;2023-05-21T14:08:56;29.17;;;27.42;;
9254;SDS011;4663;49.120;9.730;2023-05-21T14:11:22;31.55;;;29.85;;
9254;SDS011;4663;49.120;9.730;2023-05-21T14:13:48;29.42;;;27.73;;
9254;SDS011;4663;49.120;9.730;2023-05-21T14:16:13;28.80;;;27.25;;
9254;SDS011;4663;49.120;9.730;2023-05-21T14:18:38;28.25;;;26.75;;
9254;SDS011;4663;49.120;9.730;2023-05-21T14:21:04;35.05;;;32.90;;
9254;SDS011;4663;49.120;9.730;2023-05-21T14:23:29;29.65;;;27.95;;
9254;SDS011;4663;49.120;9.730;2023-05-21T14:25:55;32.08;;;30.23;;
9254;SDS011;4663;49.120;9.730;2023-05-21T14:28:20;29.77;;;28.13;;
9254;SDS011;4663;49.120;9.730;2023-05-21T14:30:45;29.92;;;28.17;;
9254;SDS011;4663;49.120;9.730;2023-05-21T14:33:11;30.20;;;28.38;;
9254;SDS011;4663;49.120;9.730;2023-05-21T14:35:37;30.10;;;28.40;;
9254;SDS011;4663;49.120;9.730;2023-05-21T14:38:02;31.10;;;29.08;;
9254;SDS011;4663;49.120;9.730;2023-05-21T14:40:28;30.67;;;28.98;;
9254;SDS011;4663;49.120;9.730;2023-05-21T14:42:53;31.83;;;29.92;;
9254;SDS011;4663;49.120;9.730;2023-05-21T14:45:20;29.80;;;28.10;;
9254;SDS011;4663;49.120;9.730;2023-05-21T14:47:45;29.98;;;28.27;;
9254;SDS011;4663;49.120;9.730;2023-05-21T14:50:11;31.23;;;29.48;;
9254;SDS011;4663;49.120;9.730;2023-05-21T14:52:37;30.67;;;28.98;;
9254;SDS011;4663;49.120;9.730;2023-05-21T14:55:03;29.60;;;28.00;;
9254;SDS011;4663;49.120;9.730;2023-05-21T14:57:28;31.63;;;29.92;;
9254;SDS011;4663;49.120;9.730;2023-05-21T14:59:54;28.83;;;27.15;;
9254;SDS011;4663;49.120;9.730;2023-05-21T15:02:19;29.02;;;27.50;;
9254;SDS011;4663;49.120;9.730;2023-05-21T15:04:45;28.08;;;26.58;;
9254;SDS011;4663;49.120;9.730;2023-05-21T15:07:10;29.52;;;27.75;;
9254;SDS011;4663;49.120;9.730;2023-05-21T15:09:36;27.85;;;26.13;;
9254;SDS011;4663;49.120;9.730;2023-05-21T15:12:01;30.40;;;28.70;;
9254;SDS011;4663;49.120;9.730;2023-05-21T15:14:26;30.48;;;28.60;;
9254;SDS011;4663;49.120;9.730;2023-05-21T15:16:52;31.08;;;29.38;;
9254;SDS011;4663;49.120;9.730;2023-05-21T15:19:17;28.85;;;27.05;;